LCEN Airport Information

Runway Information
Runway 11 Length 9039 ft width 148 ft
Elevation 402 ft Threshold 0 ft Heading 107
Runway 29 Length 9039 ft Width 148 ft
Elevation 402 ft Threshold 0 ft Heading 287
Airport Frequencies
Type Enroute Name Ercan Rada Frequency 126.7 MHZ
Type Ercan Appr Name Frequency 126.9 MHZ
Type Ercan Atis Name Frequency 118.35 MHZ
Type Ercan Towe Name Frequency 120.2 MHZ
Airport Navaids
Airport Weather Information & NOTAM
ADDS - METARS form results

(2243 UTC 18 June 2019)
Data provider http://aviationweather.gov/metar/data/
 
METAR text: LCEN 182220Z 00000KT 9999 SCT020 22/20 Q1009 NOSIG RMK RWY11 00000KT
Conditions at: LCEN (ERCAN , CY) observed 2220 UTC 18 June 2019
Temperature: 22.0°C (72°F)
Dewpoint: 20.0°C (68°F) [RH = 88%]
Pressure (altimeter): 29.79 inches Hg (1009.0 mb)
Winds: calm
Visibility: 6 or more miles (10+ km)
Ceiling: at least 12,000 feet AGL
Clouds: scattered clouds at 2000 feet AGL
Weather: no significant weather observed at this time

METAR text: LCEN 182150Z 28004KT 9999 SCT020 22/20 Q1010 NOSIG RMK RWY11 00000KT
Conditions at: LCEN (ERCAN , CY) observed 2150 UTC 18 June 2019
Temperature: 22.0°C (72°F)
Dewpoint: 20.0°C (68°F) [RH = 88%]
Pressure (altimeter): 29.82 inches Hg (1010.0 mb)
Winds: from the W (280 degrees) at 5 MPH (4 knots; 2.1 m/s)
Visibility: 6 or more miles (10+ km)
Ceiling: at least 12,000 feet AGL
Clouds: scattered clouds at 2000 feet AGL
Weather: no significant weather observed at this time

Forecast for: LCEN (ERCAN , CY)
Text: TAF LCEN 181640Z 1818/1918 28012KT 9999 SCT025
Forecast period: 1800 UTC 18 June 2019 to 1800 UTC 19 June 2019
Forecast type: FROM: standard forecast or significant change
Winds: from the W (280 degrees) at 14 MPH (12 knots; 6.2 m/s)
Visibility: 6 or more miles 10+ km)
Ceiling: at least 12,000 feet AGL
Clouds: scattered clouds at 2500 feet AGL
Weather: no significant weather forecast for this period